Time;durP1;ratioP1;P1;durP2;ratioP2;P2;SDS_P1;SDS_P2;PMS_P1;PMS_P2;Temp;Humidity;BMP_temperature;BMP_pressure;BME280_temperature;BME280_humidity;BME280_pressure;Samples;Min_cycle;Max_cycle;Signal;HPM_P1;HPM_P2
2021/07/17 00:02:25;;;;;;;6.68;3.53;;;;;;;21.28;62.08;102616.16;4900646;29;20057;-76
2021/07/17 00:04:52;;;;;;;5.45;3.50;;;;;;;21.19;62.51;102603.41;4900234;29;20104;-75
2021/07/17 00:07:20;;;;;;;7.00;3.67;;;;;;;21.22;62.30;102613.84;4900932;29;20052;-77
2021/07/17 00:09:47;;;;;;;6.00;3.30;;;;;;;21.20;62.40;102617.53;4900817;29;20493;-75
2021/07/17 00:12:13;;;;;;;7.15;3.10;;;;;;;21.13;62.38;102613.47;4898742;29;20127;-77
2021/07/17 00:14:39;;;;;;;6.07;3.10;;;;;;;21.09;62.72;102621.59;4900091;29;20831;-77
2021/07/17 00:17:05;;;;;;;6.15;2.53;;;;;;;21.10;62.54;102617.16;4899769;29;20512;-78
2021/07/17 00:19:31;;;;;;;4.30;2.72;;;;;;;20.98;62.65;102607.16;4899746;29;20421;-77
2021/07/17 00:21:57;;;;;;;3.88;3.00;;;;;;;20.91;63.39;102618.09;4899027;29;20056;-77
2021/07/17 00:24:23;;;;;;;6.45;3.10;;;;;;;20.88;63.35;102612.09;4899474;29;20048;-76
2021/07/17 00:26:49;;;;;;;5.15;3.00;;;;;;;20.84;63.48;102611.41;4898797;29;20055;-76
2021/07/17 00:29:15;;;;;;;4.50;3.00;;;;;;;20.67;63.80;102601.59;4899515;29;20063;-77
2021/07/17 00:31:41;;;;;;;4.88;2.90;;;;;;;20.62;64.41;102609.78;4897988;29;20127;-76
2021/07/17 00:34:08;;;;;;;5.93;3.17;;;;;;;20.67;64.34;102627.31;4898557;29;20052;-77
2021/07/17 00:36:34;;;;;;;4.43;3.28;;;;;;;20.49;65.24;102619.31;4899172;29;20048;-76
2021/07/17 00:39:00;;;;;;;4.85;3.05;;;;;;;20.44;65.41;102635.44;4899819;29;20049;-77
2021/07/17 00:41:26;;;;;;;5.50;3.15;;;;;;;20.29;65.24;102599.09;4899024;29;20119;-76
2021/07/17 00:43:52;;;;;;;4.55;2.80;;;;;;;20.25;65.61;102608.97;4899023;29;20053;-77
2021/07/17 00:46:18;;;;;;;6.97;3.55;;;;;;;20.36;65.76;102611.13;4899156;29;20064;-77
2021/07/17 00:48:44;;;;;;;5.43;3.10;;;;;;;20.29;65.62;102617.66;4899545;29;20122;-77
2021/07/17 00:51:12;;;;;;;7.50;4.03;;;;;;;20.33;65.95;102629.81;4898955;29;20048;-77
2021/07/17 00:53:38;;;;;;;5.82;3.38;;;;;;;20.30;65.83;102628.19;4899201;29;20064;-77
2021/07/17 00:56:04;;;;;;;5.18;2.95;;;;;;;20.07;66.00;102615.19;4898622;29;20049;-78
2021/07/17 00:58:35;;;;;;;7.35;3.53;;;;;;;20.14;66.43;102624.53;4897648;29;20401;-78
2021/07/17 01:01:01;;;;;;;4.95;2.70;;;;;;;20.17;66.24;102636.81;4897521;29;20063;-76
2021/07/17 01:03:29;;;;;;;4.57;2.80;;;;;;;20.07;66.31;102626.63;4898185;29;20135;-77
2021/07/17 01:05:55;;;;;;;5.25;2.78;;;;;;;20.06;66.21;102632.03;4899112;29;20045;-77
2021/07/17 01:08:22;;;;;;;7.28;3.60;;;;;;;20.05;66.46;102633.78;4898605;29;20084;-77
2021/07/17 01:10:48;;;;;;;6.53;2.88;;;;;;;20.05;66.25;102639.09;4899112;29;20052;-77
2021/07/17 01:13:14;;;;;;;6.22;3.10;;;;;;;20.00;66.34;102639.31;4898732;29;20200;-77
2021/07/17 01:15:41;;;;;;;6.57;3.00;;;;;;;20.01;66.48;102637.53;4898173;29;20055;-77
2021/07/17 01:18:08;;;;;;;4.10;3.15;;;;;;;20.13;65.94;102639.59;4898419;29;20049;-77
2021/07/17 01:20:37;;;;;;;5.60;3.10;;;;;;;20.11;66.01;102630.84;4897494;29;20063;-77
2021/07/17 01:23:03;;;;;;;5.38;3.13;;;;;;;20.05;65.66;102619.69;4913390;29;20045;-77
2021/07/17 01:25:32;;;;;;;6.20;2.92;;;;;;;20.06;66.21;102632.03;4902618;29;20048;-76
2021/07/17 01:28:00;;;;;;;4.13;2.78;;;;;;;19.99;66.61;102642.91;4921422;29;20052;-76
2021/07/17 01:30:30;;;;;;;4.22;2.47;;;;;;;19.94;66.70;102636.94;4921405;29;20047;-75
2021/07/17 01:32:57;;;;;;;5.10;3.05;;;;;;;19.91;66.28;102623.84;4909329;29;20052;-75
2021/07/17 01:35:25;;;;;;;6.13;3.10;;;;;;;19.88;66.05;102618.69;4908161;29;20104;-75
2021/07/17 01:37:52;;;;;;;5.43;2.92;;;;;;;20.00;66.24;102638.47;4907143;29;20049;-76
2021/07/17 01:40:20;;;;;;;5.38;3.13;;;;;;;19.88;66.06;102620.50;4901781;29;20104;-77
2021/07/17 01:42:52;;;;;;;6.00;2.67;;;;;;;19.97;66.30;102638.63;4897946;29;20056;-77
2021/07/17 01:45:33;;;;;;;5.30;2.95;;;;;;;19.93;66.29;102634.38;4898944;29;20056;-77
2021/07/17 01:48:00;;;;;;;6.30;2.92;;;;;;;19.95;65.79;102637.81;4906056;29;20200;-76
2021/07/17 01:50:30;;;;;;;4.45;2.80;;;;;;;19.95;65.80;102640.47;4899036;29;20055;-77
2021/07/17 01:52:57;;;;;;;5.78;3.10;;;;;;;19.90;65.96;102648.63;4895489;29;20436;-77
2021/07/17 01:55:24;;;;;;;5.53;2.63;;;;;;;19.73;66.09;102619.38;4898172;29;20048;-78
2021/07/17 01:57:51;;;;;;;4.60;2.65;;;;;;;19.77;66.05;102639.50;4899291;29;20517;-77
2021/07/17 02:00:18;;;;;;;7.10;2.90;;;;;;;19.62;66.41;102619.88;4902386;29;20055;-76
2021/07/17 02:02:46;;;;;;;5.45;2.97;;;;;;;19.68;66.34;102639.00;4897086;29;20044;-77
2021/07/17 02:05:12;;;;;;;4.82;3.15;;;;;;;19.67;66.46;102637.25;4901665;29;20115;-77
2021/07/17 02:07:39;;;;;;;5.00;3.05;;;;;;;19.67;66.23;102636.41;4899466;29;20063;-77
2021/07/17 02:10:11;;;;;;;4.40;2.95;;;;;;;19.56;66.62;102636.91;4898431;29;20061;-77
2021/07/17 02:13:07;;;;;;;3.95;2.60;;;;;;;19.55;66.50;102634.34;4897720;29;20143;-76
2021/07/17 02:15:35;;;;;;;4.07;2.47;;;;;;;19.46;66.66;102633.81;4897651;29;20055;-78
2021/07/17 02:18:03;;;;;;;4.63;2.80;;;;;;;19.43;66.79;102627.78;4897928;29;20045;-77
2021/07/17 02:20:29;;;;;;;5.30;2.92;;;;;;;19.45;66.78;102633.88;4897946;29;20045;-78
2021/07/17 02:22:55;;;;;;;4.03;2.67;;;;;;;19.42;66.85;102629.59;4897314;29;20132;-77
2021/07/17 02:25:21;;;;;;;4.72;2.75;;;;;;;19.40;67.13;102628.78;4897682;29;20041;-77
2021/07/17 02:27:47;;;;;;;4.15;2.90;;;;;;;19.44;66.75;102627.72;4897864;29;20049;-77
2021/07/17 02:30:14;;;;;;;4.78;3.55;;;;;;;19.35;67.23;102621.06;4899073;29;20052;-79
2021/07/17 02:32:40;;;;;;;5.40;2.63;;;;;;;19.27;67.23;102619.69;4900648;29;20135;-79
2021/07/17 02:35:07;;;;;;;4.00;2.63;;;;;;;19.22;67.48;102621.69;4900928;29;20058;-79
2021/07/17 02:37:33;;;;;;;4.78;2.60;;;;;;;19.17;67.78;102616.56;4901823;29;20135;-78
2021/07/17 02:39:59;;;;;;;6.63;2.67;;;;;;;19.13;67.71;102604.41;4901447;29;20079;-76
2021/07/17 02:42:25;;;;;;;6.38;2.85;;;;;;;19.15;67.98;102616.66;4901024;29;20041;-77
2021/07/17 02:44:52;;;;;;;6.20;2.83;;;;;;;19.10;67.95;102623.06;4901080;29;20040;-77
2021/07/17 02:47:20;;;;;;;6.55;2.90;;;;;;;19.09;67.95;102613.41;4901460;29;20048;-77
2021/07/17 02:49:46;;;;;;;5.75;3.38;;;;;;;19.08;67.88;102620.50;4900372;29;20524;-77
2021/07/17 02:52:12;;;;;;;4.93;3.10;;;;;;;18.99;68.02;102605.88;4900375;29;20057;-78
2021/07/17 02:54:38;;;;;;;4.28;3.00;;;;;;;19.02;67.87;102615.47;4901668;29;20045;-77
2021/07/17 02:57:07;;;;;;;4.75;2.55;;;;;;;19.00;67.79;102610.22;4901341;29;20230;-76
2021/07/17 02:59:33;;;;;;;6.07;2.78;;;;;;;19.03;67.71;102619.84;4898776;29;20561;-77
2021/07/17 03:02:01;;;;;;;4.75;2.78;;;;;;;18.97;67.59;102607.72;4899963;29;20108;-77
2021/07/17 03:04:27;;;;;;;5.35;2.90;;;;;;;19.03;67.48;102611.91;4900674;29;20049;-78
2021/07/17 03:06:53;;;;;;;4.18;2.97;;;;;;;19.03;67.13;102610.09;4900614;29;20629;-76
2021/07/17 03:09:20;;;;;;;5.43;3.20;;;;;;;18.86;67.72;102600.22;4900772;29;20044;-78
2021/07/17 03:11:46;;;;;;;5.95;2.97;;;;;;;18.81;67.90;102598.69;4895430;29;20064;-77
2021/07/17 03:14:12;;;;;;;5.00;2.50;;;;;;;18.95;67.73;102614.84;4899384;29;20041;-80
2021/07/17 03:16:38;;;;;;;4.78;2.80;;;;;;;19.00;67.58;102602.28;4900529;29;20053;-78
2021/07/17 03:19:04;;;;;;;4.50;2.72;;;;;;;19.01;67.08;102593.41;4900909;29;20056;-77
2021/07/17 03:21:30;;;;;;;5.05;2.78;;;;;;;19.11;66.96;102598.31;4900322;29;20044;-77
2021/07/17 03:23:56;;;;;;;4.68;2.72;;;;;;;19.15;66.86;102606.06;4899533;29;20497;-76
2021/07/17 03:26:23;;;;;;;4.57;2.30;;;;;;;19.25;66.40;102606.50;4900400;29;20131;-77
2021/07/17 03:28:51;;;;;;;4.93;2.70;;;;;;;19.16;66.22;102593.69;4900460;29;20045;-77
2021/07/17 03:31:26;;;;;;;4.38;2.47;;;;;;;19.24;66.18;102610.09;4900259;29;20064;-77
2021/07/17 03:33:52;;;;;;;3.28;2.40;;;;;;;19.16;66.73;102604.25;4900448;29;20048;-77
2021/07/17 03:36:18;;;;;;;5.07;2.85;;;;;;;19.16;66.44;102613.09;4900670;29;20044;-78
2021/07/17 03:38:44;;;;;;;5.05;2.72;;;;;;;19.09;66.73;102608.09;4900510;29;20048;-78
2021/07/17 03:41:10;;;;;;;4.68;2.35;;;;;;;19.04;66.70;102603.00;4900021;29;20416;-78
2021/07/17 03:43:36;;;;;;;4.80;2.72;;;;;;;19.07;66.41;102602.03;4899800;29;20060;-77
2021/07/17 03:46:02;;;;;;;5.38;2.85;;;;;;;19.25;65.90;102616.22;4900213;29;20084;-77
2021/07/17 03:48:30;;;;;;;4.50;2.33;;;;;;;19.28;65.46;102608.16;4900520;29;20104;-77
2021/07/17 03:50:56;;;;;;;3.72;2.30;;;;;;;19.24;65.20;102595.97;4899047;29;20051;-76
2021/07/17 03:53:22;;;;;;;5.07;2.25;;;;;;;19.32;65.37;102610.63;4899221;29;20053;-77
2021/07/17 03:55:48;;;;;;;5.88;2.60;;;;;;;19.21;65.53;102604.91;4900563;29;20056;-78
2021/07/17 03:58:14;;;;;;;3.90;2.30;;;;;;;19.25;65.56;102603.88;4900170;29;20084;-77
2021/07/17 04:00:41;;;;;;;4.25;2.40;;;;;;;19.25;65.57;102608.28;4899761;29;20052;-77
2021/07/17 04:03:07;;;;;;;4.93;2.65;;;;;;;19.19;65.63;102598.84;4900192;29;20052;-77
2021/07/17 04:05:33;;;;;;;6.65;2.97;;;;;;;19.32;65.15;102599.16;4901509;29;20048;-74
2021/07/17 04:07:59;;;;;;;4.18;2.45;;;;;;;19.39;65.36;102616.47;4916172;29;20112;-75
2021/07/17 04:10:25;;;;;;;4.45;2.47;;;;;;;19.35;65.29;102605.16;4922587;29;20049;-76
2021/07/17 04:12:53;;;;;;;4.78;2.42;;;;;;;19.29;65.95;102618.69;4918531;29;20059;-76
2021/07/17 04:15:19;;;;;;;3.25;2.35;;;;;;;19.35;65.63;102615.75;4901347;29;20051;-76
2021/07/17 04:17:45;;;;;;;4.15;2.55;;;;;;;19.27;65.46;102611.72;4901539;29;20080;-77
2021/07/17 04:20:12;;;;;;;4.43;2.35;;;;;;;19.35;65.42;102621.06;4901850;29;20056;-76
2021/07/17 04:22:39;;;;;;;5.22;2.63;;;;;;;19.40;65.32;102618.19;4901110;29;20104;-76
2021/07/17 04:25:06;;;;;;;6.05;3.08;;;;;;;19.34;65.69;102615.84;4901594;29;20076;-77
2021/07/17 04:27:32;;;;;;;5.72;2.90;;;;;;;19.36;65.68;102612.19;4909809;29;20056;-77
2021/07/17 04:29:58;;;;;;;4.45;3.00;;;;;;;19.30;65.60;102604.50;4909005;29;20052;-76
2021/07/17 04:32:24;;;;;;;5.32;2.58;;;;;;;19.41;65.63;102617.28;4904912;29;20485;-77
2021/07/17 04:34:50;;;;;;;5.00;2.67;;;;;;;19.43;65.40;102609.25;4900343;29;20072;-77
2021/07/17 04:37:20;;;;;;;5.28;2.40;;;;;;;19.46;65.03;102607.31;4898768;29;20100;-78
2021/07/17 04:39:51;;;;;;;4.90;2.60;;;;;;;19.48;65.45;102617.84;4898997;29;20060;-78
2021/07/17 04:42:18;;;;;;;3.60;2.38;;;;;;;19.47;65.11;102601.09;4899064;29;20432;-77
2021/07/17 04:44:44;;;;;;;7.57;2.80;;;;;;;19.57;65.22;102617.44;4898865;29;20053;-77
2021/07/17 04:47:10;;;;;;;4.28;2.55;;;;;;;19.58;64.93;102619.16;4898947;29;20056;-77
2021/07/17 04:49:36;;;;;;;5.93;2.45;;;;;;;19.61;64.89;102621.66;4899707;29;20056;-76
2021/07/17 04:52:02;;;;;;;3.95;2.70;;;;;;;19.62;64.89;102627.84;4898138;29;20051;-77
2021/07/17 04:54:28;;;;;;;5.55;2.40;;;;;;;19.52;65.17;102614.16;4898940;29;20091;-77
2021/07/17 04:56:55;;;;;;;6.82;2.70;;;;;;;19.37;65.26;102599.78;4899077;29;20127;-76
2021/07/17 04:59:22;;;;;;;4.75;2.85;;;;;;;19.49;65.18;102612.50;4900737;29;20541;-78
2021/07/17 05:01:48;;;;;;;4.50;2.55;;;;;;;19.64;64.77;102615.34;4899155;29;20059;-77
2021/07/17 05:04:14;;;;;;;5.38;2.50;;;;;;;19.78;64.38;102623.53;4898298;29;20084;-77
2021/07/17 05:06:40;;;;;;;6.65;2.92;;;;;;;19.97;63.71;102617.41;4899070;29;20143;-77
2021/07/17 05:09:07;;;;;;;3.92;2.42;;;;;;;19.93;63.19;102581.38;4899598;29;20056;-77
2021/07/17 05:11:34;;;;;;;4.60;2.65;;;;;;;20.32;62.63;102598.91;4913658;29;20064;-77
2021/07/17 05:14:01;;;;;;;5.90;2.63;;;;;;;20.61;61.77;102594.81;4899271;29;20052;-77
2021/07/17 05:16:27;;;;;;;6.13;2.40;;;;;;;20.70;61.61;102612.09;4897840;29;20059;-77
2021/07/17 05:18:53;;;;;;;4.85;2.63;;;;;;;20.71;61.03;102597.84;4898698;29;20049;-77
2021/07/17 05:21:19;;;;;;;7.28;2.55;;;;;;;20.71;61.30;102608.47;4898755;29;20048;-77
2021/07/17 05:23:47;;;;;;;5.13;2.70;;;;;;;20.60;61.25;102618.78;4898511;29;20048;-77
2021/07/17 05:26:13;;;;;;;7.35;3.28;;;;;;;20.39;62.17;102620.72;4899095;29;20065;-77
2021/07/17 05:28:39;;;;;;;5.95;2.70;;;;;;;20.36;62.22;102624.38;4898426;29;20053;-76
2021/07/17 05:31:05;;;;;;;5.75;2.90;;;;;;;20.10;63.10;102628.28;4899342;29;20040;-77
2021/07/17 05:33:31;;;;;;;3.70;2.30;;;;;;;20.00;63.01;102623.41;4897913;29;20052;-77
2021/07/17 05:35:58;;;;;;;4.30;2.50;;;;;;;19.76;63.58;102611.28;4898960;29;20500;-76
2021/07/17 05:38:23;;;;;;;4.85;2.50;;;;;;;19.76;63.45;102611.28;4899227;29;20046;-77
2021/07/17 05:40:50;;;;;;;5.75;2.97;;;;;;;19.70;63.56;102599.19;4899316;29;20060;-77
2021/07/17 05:43:16;;;;;;;6.72;2.95;;;;;;;19.83;63.64;102628.63;4898068;29;20056;-77
2021/07/17 05:45:42;;;;;;;5.35;2.70;;;;;;;19.84;63.41;102631.22;4898331;29;20055;-78
2021/07/17 05:48:08;;;;;;;5.28;2.53;;;;;;;19.76;63.91;102624.53;4898395;29;20099;-77
2021/07/17 05:50:34;;;;;;;3.72;2.67;;;;;;;19.73;63.75;102620.22;4898214;29;20048;-77
2021/07/17 05:53:08;;;;;;;5.60;2.97;;;;;;;19.80;63.69;102621.66;4898293;29;20445;-77
2021/07/17 05:55:34;;;;;;;;;;;;;;;19.85;63.72;102629.44;4898930;29;20059;-78
2021/07/17 05:58:01;;;;;;;5.47;2.80;;;;;;;19.82;63.65;102627.78;4898003;29;19924;-76
2021/07/17 06:00:27;;;;;;;4.40;2.63;;;;;;;19.96;63.28;102631.59;4898463;29;20096;-76
2021/07/17 06:02:53;;;;;;;4.72;2.25;;;;;;;20.04;63.19;102624.13;4898884;29;20053;-77
2021/07/17 06:05:20;;;;;;;3.83;2.20;;;;;;;20.01;63.45;102621.63;4897277;29;20044;-78
2021/07/17 06:07:46;;;;;;;5.82;2.60;;;;;;;20.10;63.28;102625.63;4898028;29;20120;-77
2021/07/17 06:10:12;;;;;;;5.03;2.60;;;;;;;20.13;62.93;102621.03;4898721;29;20417;-76
2021/07/17 06:12:41;;;;;;;5.28;2.90;;;;;;;20.28;62.55;102637.16;4895285;29;20079;-77
2021/07/17 06:15:08;;;;;;;6.20;2.60;;;;;;;20.28;62.29;102640.63;4898485;29;20080;-77
2021/07/17 06:17:35;;;;;;;5.53;2.58;;;;;;;20.27;62.40;102632.75;4898598;29;20045;-75
2021/07/17 06:20:03;;;;;;;4.40;2.53;;;;;;;20.23;62.49;102641.81;4899043;29;20191;-77
2021/07/17 06:22:29;;;;;;;6.40;3.03;;;;;;;20.23;62.18;102640.00;4899012;29;20053;-78
2021/07/17 06:24:55;;;;;;;3.65;2.55;;;;;;;20.27;62.07;102638.91;4899370;29;20055;-76
2021/07/17 06:27:21;;;;;;;5.47;2.60;;;;;;;20.33;62.09;102644.88;4898545;29;20048;-77
2021/07/17 06:29:47;;;;;;;4.50;2.80;;;;;;;20.30;62.17;102645.88;4918216;29;20083;-76
2021/07/17 06:32:15;;;;;;;5.38;2.88;;;;;;;20.20;62.11;102618.09;4916931;29;20108;-76
2021/07/17 06:34:41;;;;;;;6.10;2.70;;;;;;;20.52;61.72;102656.31;4904939;29;20044;-76
2021/07/17 06:37:07;;;;;;;4.90;2.80;;;;;;;20.56;61.56;102646.41;4905306;29;20136;-75
2021/07/17 06:39:34;;;;;;;4.47;2.70;;;;;;;20.65;61.34;102651.22;4908029;29;20045;-76
2021/07/17 06:42:00;;;;;;;5.05;2.63;;;;;;;20.70;61.15;102656.31;4909062;29;20060;-76
2021/07/17 06:44:26;;;;;;;4.47;2.42;;;;;;;20.69;61.35;102658.13;4908194;29;20100;-77
2021/07/17 06:46:53;;;;;;;5.78;2.50;;;;;;;20.80;61.28;102662.94;4910650;29;20120;-76
2021/07/17 06:49:20;;;;;;;3.53;2.40;;;;;;;20.69;61.28;102636.91;4914618;29;20049;-76
2021/07/17 06:51:46;;;;;;;4.18;2.65;;;;;;;20.75;61.14;102660.50;4917597;29;20037;-78
2021/07/17 06:54:12;;;;;;;5.40;2.80;;;;;;;20.72;61.29;102655.34;4917239;29;20052;-79
2021/07/17 06:56:38;;;;;;;7.45;3.10;;;;;;;20.85;61.16;102666.19;4912558;29;20048;-77
2021/07/17 06:59:06;;;;;;;4.60;2.70;;;;;;;20.82;60.94;102668.16;4904926;29;20063;-77
2021/07/17 07:01:33;;;;;;;4.65;2.97;;;;;;;20.92;60.88;102656.13;4913689;29;20053;-77
2021/07/17 07:03:59;;;;;;;5.32;2.60;;;;;;;21.01;60.43;102662.78;4899368;29;20056;-76
2021/07/17 07:06:28;;;;;;;3.58;2.60;;;;;;;20.95;60.57;102659.47;4897440;29;20495;-80
2021/07/17 07:08:54;;;;;;;5.07;2.65;;;;;;;21.00;60.55;102659.25;4898890;29;20059;-77
2021/07/17 07:11:23;;;;;;;6.00;3.05;;;;;;;21.08;60.75;102661.50;4898093;29;20386;-75
2021/07/17 07:13:49;;;;;;;4.30;2.80;;;;;;;21.14;60.38;102661.22;4897348;29;20140;-75
2021/07/17 07:16:15;;;;;;;6.22;3.35;;;;;;;21.16;60.48;102669.09;4899221;29;20080;-77
2021/07/17 07:18:44;;;;;;;5.25;2.75;;;;;;;21.23;60.38;102642.13;4901609;29;20048;-77
2021/07/17 07:21:10;;;;;;;6.50;3.08;;;;;;;21.29;60.12;102643.59;4901692;29;20143;-77
2021/07/17 07:23:37;;;;;;;5.97;3.15;;;;;;;21.50;59.48;102662.00;4901359;29;20068;-77
2021/07/17 07:26:03;;;;;;;4.35;2.85;;;;;;;21.60;59.42;102655.28;4902403;29;20091;-78
2021/07/17 07:28:30;;;;;;;5.20;2.70;;;;;;;21.83;58.57;102663.81;4901495;29;20044;-76
2021/07/17 07:30:56;;;;;;;5.30;3.05;;;;;;;21.86;58.47;102666.28;4901456;29;20508;-79
2021/07/17 07:33:22;;;;;;;5.00;3.35;;;;;;;21.98;58.16;102664.75;4901681;29;20516;-78
2021/07/17 07:35:48;;;;;;;4.45;2.50;;;;;;;21.95;57.93;102638.31;4900975;29;20425;-76
2021/07/17 07:38:14;;;;;;;3.92;2.65;;;;;;;22.04;57.77;102653.78;4900004;29;20140;-77
2021/07/17 07:40:40;;;;;;;5.38;2.40;;;;;;;22.09;57.80;102666.81;4900910;29;20048;-77
2021/07/17 07:43:06;;;;;;;4.55;2.72;;;;;;;22.25;56.95;102667.66;4903058;29;20051;-74
2021/07/17 07:45:34;;;;;;;5.78;2.78;;;;;;;22.30;56.64;102643.44;4900591;29;20092;-77
2021/07/17 07:48:00;;;;;;;4.55;2.42;;;;;;;22.45;57.05;102661.25;4900542;29;20555;-76
2021/07/17 07:50:26;;;;;;;5.97;2.72;;;;;;;22.50;56.69;102664.50;4900579;29;20044;-76
2021/07/17 07:52:54;;;;;;;7.18;3.20;;;;;;;22.52;56.60;102664.38;4899197;29;20063;-77
2021/07/17 07:55:20;;;;;;;4.53;2.72;;;;;;;22.77;56.18;102661.16;4900810;29;20128;-77
2021/07/17 07:57:48;;;;;;;5.30;2.63;;;;;;;22.85;56.14;102666.91;4899932;29;20048;-77
2021/07/17 08:00:15;;;;;;;7.05;3.05;;;;;;;22.94;55.96;102659.31;4900130;29;20092;-76
2021/07/17 08:02:41;;;;;;;8.20;3.45;;;;;;;22.88;55.78;102662.34;4899111;29;20120;-76
2021/07/17 08:05:09;;;;;;;4.57;2.95;;;;;;;22.88;56.02;102659.69;4900095;29;20064;-77
2021/07/17 08:07:35;;;;;;;6.25;3.15;;;;;;;22.90;55.67;102661.31;4898349;29;20114;-75
2021/07/17 08:10:03;;;;;;;5.13;2.80;;;;;;;22.88;55.28;102647.22;4882532;29;20089;-76
2021/07/17 08:12:29;;;;;;;4.60;2.58;;;;;;;22.82;55.32;102610.31;4899645;29;20053;-76
2021/07/17 08:14:55;;;;;;;5.20;2.90;;;;;;;23.08;54.19;102650.47;4899065;29;20049;-77
2021/07/17 08:17:22;;;;;;;7.22;3.15;;;;;;;23.08;55.20;102639.81;4900030;29;20119;-77
2021/07/17 08:19:47;;;;;;;5.07;2.70;;;;;;;23.32;54.86;102653.50;4899677;29;20477;-77
2021/07/17 08:22:13;;;;;;;4.72;2.88;;;;;;;23.38;54.17;102647.78;4900409;29;20056;-77
2021/07/17 08:24:40;;;;;;;6.80;3.13;;;;;;;23.56;53.94;102656.44;4900581;29;20056;-77
2021/07/17 08:27:06;;;;;;;4.68;3.00;;;;;;;23.68;53.44;102660.16;4899456;29;20057;-77
2021/07/17 08:29:34;;;;;;;7.00;3.13;;;;;;;23.50;53.11;102641.69;4900306;29;20059;-77
2021/07/17 08:32:00;;;;;;;7.43;3.00;;;;;;;23.52;52.59;102659.41;4900116;29;20497;-77
2021/07/17 08:34:27;;;;;;;6.25;3.42;;;;;;;23.62;53.23;102664.06;4900102;29;20048;-77
2021/07/17 08:36:53;;;;;;;6.10;3.10;;;;;;;23.73;53.37;102652.72;4899935;29;20044;-79
2021/07/17 08:39:19;;;;;;;5.32;2.75;;;;;;;23.76;53.81;102641.00;4899791;29;20052;-78
2021/07/17 08:41:49;;;;;;;4.55;2.95;;;;;;;23.97;53.16;102652.13;4900372;29;20052;-77
2021/07/17 08:44:18;;;;;;;6.13;3.28;;;;;;;24.02;52.21;102655.34;4900261;29;20064;-77
2021/07/17 08:46:46;;;;;;;6.80;3.00;;;;;;;23.89;53.24;102646.38;4900243;29;20406;-76
2021/07/17 08:49:15;;;;;;;5.65;2.90;;;;;;;24.00;52.76;102649.28;4900198;29;20087;-77
2021/07/17 08:51:44;;;;;;;4.50;2.97;;;;;;;23.91;53.75;102647.16;4898620;29;20048;-77
2021/07/17 08:54:12;;;;;;;6.13;2.80;;;;;;;24.17;52.75;102657.97;4899565;29;20113;-78
2021/07/17 08:56:39;;;;;;;5.35;2.72;;;;;;;24.17;52.77;102645.50;4913404;29;20091;-76
2021/07/17 08:59:05;;;;;;;6.15;3.00;;;;;;;24.32;52.16;102632.97;4898867;29;20112;-77
2021/07/17 09:01:32;;;;;;;5.13;2.72;;;;;;;24.38;52.39;102640.56;4896840;29;20068;-78
2021/07/17 09:03:58;;;;;;;7.78;3.08;;;;;;;24.39;52.33;102638.72;4896348;29;20557;-77
2021/07/17 09:06:24;;;;;;;8.45;2.97;;;;;;;24.66;51.65;102635.22;4897816;29;20048;-77
2021/07/17 09:08:51;;;;;;;7.20;3.30;;;;;;;24.77;51.00;102641.53;4899138;29;20131;-76
2021/07/17 09:11:17;;;;;;;5.93;2.53;;;;;;;24.65;51.36;102642.34;4901120;29;20132;-75
2021/07/17 09:13:44;;;;;;;7.53;2.65;;;;;;;24.75;50.10;102638.09;4900411;29;20060;-77
2021/07/17 09:16:13;;;;;;;5.20;2.60;;;;;;;24.89;50.32;102638.97;4900345;29;20051;-75
2021/07/17 09:18:46;;;;;;;6.25;2.85;;;;;;;24.91;49.48;102632.59;4901265;29;20049;-75
2021/07/17 09:21:21;;;;;;;6.00;2.70;;;;;;;25.05;49.97;102628.13;4900392;29;20049;-76
2021/07/17 09:24:00;;;;;;;4.70;2.78;;;;;;;25.25;49.24;102640.06;4901682;29;20052;-74
2021/07/17 09:26:37;;;;;;;8.15;3.22;;;;;;;25.29;49.14;102635.38;4900334;29;20077;-77
2021/07/17 09:29:07;;;;;;;6.63;2.90;;;;;;;25.23;49.43;102637.50;4905375;29;20052;-76
2021/07/17 09:31:53;;;;;;;5.57;2.67;;;;;;;25.15;50.12;102629.16;4908751;29;20048;-75
2021/07/17 09:34:22;;;;;;;5.90;2.75;;;;;;;25.32;50.01;102636.00;4907654;29;20052;-76
2021/07/17 09:37:11;;;;;;;5.18;2.85;;;;;;;25.33;48.99;102635.03;4899228;29;20149;-76
2021/07/17 09:39:41;;;;;;;9.20;3.75;;;;;;;25.31;49.38;102626.28;4917159;29;20049;-77
2021/07/17 09:42:11;;;;;;;5.32;2.88;;;;;;;25.29;49.57;102620.16;4899097;29;20059;-76
2021/07/17 09:44:38;;;;;;;7.82;3.30;;;;;;;25.53;49.29;102625.63;4899943;29;20410;-77
2021/07/17 09:47:26;;;;;;;6.70;3.20;;;;;;;25.62;49.54;102618.78;4898168;29;20100;-76
2021/07/17 09:50:11;;;;;;;6.20;3.15;;;;;;;25.60;49.47;102615.34;4882253;29;20096;-75
2021/07/17 09:52:43;;;;;;;8.13;3.30;;;;;;;25.55;49.20;102607.66;4896804;29;20071;-75
2021/07/17 09:55:12;;;;;;;6.03;3.10;;;;;;;25.64;49.60;102610.63;4912777;29;20052;-77
2021/07/17 09:57:40;;;;;;;8.05;3.40;;;;;;;25.76;48.73;102607.06;4898745;29;20075;-77
2021/07/17 10:00:18;;;;;;;5.57;2.83;;;;;;;25.92;48.71;102608.63;4896800;29;20048;-77
2021/07/17 10:02:46;;;;;;;5.72;2.97;;;;;;;26.02;48.63;102606.97;4897915;29;20067;-76
2021/07/17 10:05:17;;;;;;;11.38;3.90;;;;;;;26.22;48.01;102608.22;4896032;29;20040;-78
2021/07/17 10:08:07;;;;;;;7.50;3.47;;;;;;;26.01;48.41;102606.13;4899040;29;20128;-77
2021/07/17 10:10:36;;;;;;;6.40;3.40;;;;;;;26.08;48.08;102608.38;4897533;29;20049;-78
2021/07/17 10:13:03;;;;;;;6.05;3.40;;;;;;;25.82;48.17;102595.91;4879685;29;20084;-76
2021/07/17 10:15:32;;;;;;;6.25;3.22;;;;;;;25.88;48.82;102606.16;4891574;29;20127;-76
2021/07/17 10:18:23;;;;;;;6.43;3.88;;;;;;;25.98;49.01;102608.16;4897987;29;20049;-77
2021/07/17 10:20:54;;;;;;;5.78;3.50;;;;;;;26.11;49.04;102602.78;4897391;29;20071;-76
2021/07/17 10:23:21;;;;;;;5.40;3.53;;;;;;;26.33;48.72;102605.56;4898000;29;20057;-75
2021/07/17 10:25:47;;;;;;;7.25;3.70;;;;;;;26.40;48.80;102603.25;4897704;29;20402;-77
2021/07/17 10:28:13;;;;;;;5.85;3.58;;;;;;;26.43;48.28;102602.19;4898376;29;20056;-77
2021/07/17 10:30:39;;;;;;;7.38;4.05;;;;;;;26.50;48.47;102590.91;4898182;29;20394;-76
2021/07/17 10:33:08;;;;;;;6.45;3.40;;;;;;;26.68;48.28;102603.84;4898414;29;20104;-77
2021/07/17 10:35:37;;;;;;;6.07;3.00;;;;;;;26.62;48.49;102599.81;4896745;29;20087;-76
2021/07/17 10:38:06;;;;;;;7.10;3.42;;;;;;;26.69;47.91;102605.53;4897980;29;20053;-75
2021/07/17 10:40:33;;;;;;;6.15;3.10;;;;;;;26.69;48.21;102601.03;4897378;29;20048;-76
2021/07/17 10:43:00;;;;;;;6.18;3.42;;;;;;;26.74;48.13;102594.47;4912000;29;20123;-77
2021/07/17 10:45:35;;;;;;;6.18;3.20;;;;;;;26.78;47.40;102591.47;4912963;29;20130;-77
2021/07/17 10:48:02;;;;;;;5.18;3.10;;;;;;;26.64;47.53;102595.19;4908235;29;20045;-76
2021/07/17 10:50:36;;;;;;;6.13;3.25;;;;;;;26.82;47.10;102581.38;4899577;29;20474;-76
2021/07/17 10:53:02;;;;;;;5.63;2.90;;;;;;;27.02;47.16;102584.31;4901843;29;20055;-76
2021/07/17 10:55:36;;;;;;;8.57;3.15;;;;;;;26.91;46.06;102583.31;4901230;29;21798;-76
2021/07/17 10:58:11;;;;;;;5.82;3.15;;;;;;;27.02;45.55;102585.16;4902438;29;20056;-77
2021/07/17 11:00:50;;;;;;;5.47;2.80;;;;;;;26.94;45.72;102571.50;4900914;29;20056;-76
2021/07/17 11:03:19;;;;;;;5.20;3.05;;;;;;;27.06;46.50;102580.41;4901817;29;20052;-76
2021/07/17 11:05:46;;;;;;;6.10;3.35;;;;;;;26.88;46.63;102580.91;4901069;29;20045;-76
2021/07/17 11:08:36;;;;;;;4.85;2.92;;;;;;;26.99;46.46;102580.06;4900976;29;20045;-76
2021/07/17 11:11:27;;;;;;;6.63;3.53;;;;;;;26.91;47.11;102580.63;4900748;29;20056;-76
2021/07/17 11:14:19;;;;;;;6.35;3.08;;;;;;;26.95;46.60;102573.22;4901479;29;20053;-76
2021/07/17 11:16:48;;;;;;;6.85;3.53;;;;;;;27.23;46.44;102579.91;4901391;29;20044;-77
2021/07/17 11:19:29;;;;;;;7.55;3.47;;;;;;;27.24;45.86;102578.94;4901527;29;20052;-77
2021/07/17 11:22:08;;;;;;;6.10;3.08;;;;;;;27.23;45.96;102577.22;4916100;29;20079;-76
2021/07/17 11:24:34;;;;;;;5.35;3.10;;;;;;;27.13;46.24;102577.09;4901269;29;20051;-77
2021/07/17 11:27:11;;;;;;;6.72;3.17;;;;;;;27.26;46.73;102568.94;4901448;29;20052;-76
2021/07/17 11:29:43;;;;;;;6.20;3.35;;;;;;;27.33;45.95;102566.63;4882615;29;20045;-76